Strona główna
METAR-TAF:

METAR-TAF

Lotnisko :

Schaffen

Diest, Belgia

Szerokość geograficzna: 51-00N, Długość geograficzna: 005-04E, wysokość: 30 m

Aktualna obserwacja pogody

Raport powstał 26 minut temu, godzina 06:55 UTC
Wiatr 3 kt od południowy zachód
Temperatura 18°C
Wilgotność 77%
Ciśnienie 1020 hPa
Widzialność 10 km lub więcej

METAR: EBDT 210655Z AUTO 22003KT 9999 FEW011/// SCT016/// BKN110/// 18/14 Q1020 WHT

czas: 09:21 (07:21 UTC)


TAF: brakujący

Obserwacja i prognoza pogody dla ponad 4000 lotnisk (raport METAR i TAF).

Dostępne stacje oznaczono żółtymi i czerwonymi punktami na mapie.

Najedź kursorem aby zobaczyć nazwę stacji.

Kliknij aby zobaczyć obserwacje i prognozy pogody.

Aby zmienić mapę: kliknij na zielony przycisk z czarnym krzyżykiem, aby powiększyć; na zielony przycisk z myślnikiem, aby pomniejszyć; na zielone strzałki, aby przejść do map sąsiednich.


METAR-TAF: